sensor_id;sensor_type;location;lat;lon;timestamp;P1;durP1;ratioP1;P2;durP2;ratioP2
2107;SDS011;1060;52.492;13.388;2023-12-28T00:01:09;9.95;;;6.85;;
2107;SDS011;1060;52.492;13.388;2023-12-28T00:03:38;9.45;;;5.82;;
2107;SDS011;1060;52.492;13.388;2023-12-28T00:06:06;8.30;;;5.80;;
2107;SDS011;1060;52.492;13.388;2023-12-28T00:08:33;10.55;;;5.90;;
2107;SDS011;1060;52.492;13.388;2023-12-28T00:10:59;8.25;;;6.82;;
2107;SDS011;1060;52.492;13.388;2023-12-28T00:13:28;9.05;;;5.97;;
2107;SDS011;1060;52.492;13.388;2023-12-28T00:15:55;8.65;;;6.72;;
2107;SDS011;1060;52.492;13.388;2023-12-28T00:18:21;9.53;;;6.37;;
2107;SDS011;1060;52.492;13.388;2023-12-28T00:20:50;8.45;;;5.85;;
2107;SDS011;1060;52.492;13.388;2023-12-28T00:23:20;8.73;;;6.63;;
2107;SDS011;1060;52.492;13.388;2023-12-28T00:25:46;7.40;;;5.80;;
2107;SDS011;1060;52.492;13.388;2023-12-28T00:28:13;14.23;;;7.13;;
2107;SDS011;1060;52.492;13.388;2023-12-28T00:30:39;6.03;;;5.43;;
2107;SDS011;1060;52.492;13.388;2023-12-28T00:33:05;8.88;;;6.95;;
2107;SDS011;1060;52.492;13.388;2023-12-28T00:35:32;6.63;;;4.95;;
2107;SDS011;1060;52.492;13.388;2023-12-28T00:38:02;6.65;;;5.32;;
2107;SDS011;1060;52.492;13.388;2023-12-28T00:40:29;17.40;;;7.20;;
2107;SDS011;1060;52.492;13.388;2023-12-28T00:42:55;9.20;;;6.18;;
2107;SDS011;1060;52.492;13.388;2023-12-28T00:45:23;7.70;;;6.13;;
2107;SDS011;1060;52.492;13.388;2023-12-28T00:47:50;5.90;;;5.40;;
2107;SDS011;1060;52.492;13.388;2023-12-28T00:50:22;9.03;;;5.70;;
2107;SDS011;1060;52.492;13.388;2023-12-28T00:52:55;7.60;;;6.13;;
2107;SDS011;1060;52.492;13.388;2023-12-28T00:55:29;6.95;;;6.35;;
2107;SDS011;1060;52.492;13.388;2023-12-28T00:57:58;7.47;;;6.03;;
2107;SDS011;1060;52.492;13.388;2023-12-28T01:00:27;8.60;;;6.17;;
2107;SDS011;1060;52.492;13.388;2023-12-28T01:02:57;11.52;;;6.72;;
2107;SDS011;1060;52.492;13.388;2023-12-28T01:05:24;7.43;;;5.40;;
2107;SDS011;1060;52.492;13.388;2023-12-28T01:07:54;10.33;;;5.87;;
2107;SDS011;1060;52.492;13.388;2023-12-28T01:10:20;5.90;;;5.40;;
2107;SDS011;1060;52.492;13.388;2023-12-28T01:12:47;5.67;;;5.17;;
2107;SDS011;1060;52.492;13.388;2023-12-28T01:15:15;6.80;;;6.10;;
2107;SDS011;1060;52.492;13.388;2023-12-28T01:17:43;7.20;;;6.00;;
2107;SDS011;1060;52.492;13.388;2023-12-28T01:20:13;9.90;;;6.10;;
2107;SDS011;1060;52.492;13.388;2023-12-28T01:22:39;9.27;;;7.40;;
2107;SDS011;1060;52.492;13.388;2023-12-28T01:25:10;6.50;;;5.67;;
2107;SDS011;1060;52.492;13.388;2023-12-28T01:27:37;8.37;;;6.47;;
2107;SDS011;1060;52.492;13.388;2023-12-28T01:30:03;6.07;;;4.90;;
2107;SDS011;1060;52.492;13.388;2023-12-28T01:32:31;4.73;;;4.20;;
2107;SDS011;1060;52.492;13.388;2023-12-28T01:34:57;8.63;;;4.83;;
2107;SDS011;1060;52.492;13.388;2023-12-28T01:37:23;5.97;;;4.50;;
2107;SDS011;1060;52.492;13.388;2023-12-28T01:39:50;4.93;;;4.47;;
2107;SDS011;1060;52.492;13.388;2023-12-28T01:42:16;4.60;;;4.20;;
2107;SDS011;1060;52.492;13.388;2023-12-28T01:44:43;5.70;;;3.47;;
2107;SDS011;1060;52.492;13.388;2023-12-28T01:47:09;3.50;;;3.20;;
2107;SDS011;1060;52.492;13.388;2023-12-28T01:49:36;5.60;;;3.80;;
2107;SDS011;1060;52.492;13.388;2023-12-28T01:52:06;5.43;;;3.70;;
2107;SDS011;1060;52.492;13.388;2023-12-28T01:54:33;5.30;;;3.37;;
2107;SDS011;1060;52.492;13.388;2023-12-28T01:57:02;4.30;;;3.90;;
2107;SDS011;1060;52.492;13.388;2023-12-28T01:59:32;3.03;;;2.83;;
2107;SDS011;1060;52.492;13.388;2023-12-28T02:01:58;3.80;;;3.40;;
2107;SDS011;1060;52.492;13.388;2023-12-28T02:04:25;3.70;;;3.30;;
2107;SDS011;1060;52.492;13.388;2023-12-28T02:06:56;3.57;;;3.27;;
2107;SDS011;1060;52.492;13.388;2023-12-28T02:09:25;5.80;;;2.57;;
2107;SDS011;1060;52.492;13.388;2023-12-28T02:11:54;5.30;;;3.70;;
2107;SDS011;1060;52.492;13.388;2023-12-28T02:14:21;5.07;;;4.27;;
2107;SDS011;1060;52.492;13.388;2023-12-28T02:19:44;3.33;;;2.90;;
2107;SDS011;1060;52.492;13.388;2023-12-28T02:22:13;3.27;;;2.97;;
2107;SDS011;1060;52.492;13.388;2023-12-28T02:27:21;2.83;;;2.23;;
2107;SDS011;1060;52.492;13.388;2023-12-28T02:29:48;4.43;;;2.80;;
2107;SDS011;1060;52.492;13.388;2023-12-28T02:32:17;4.23;;;3.60;;
2107;SDS011;1060;52.492;13.388;2023-12-28T02:34:48;5.17;;;2.50;;
2107;SDS011;1060;52.492;13.388;2023-12-28T02:37:18;3.63;;;3.07;;
2107;SDS011;1060;52.492;13.388;2023-12-28T02:39:44;3.13;;;2.40;;
2107;SDS011;1060;52.492;13.388;2023-12-28T02:42:11;2.13;;;2.00;;
2107;SDS011;1060;52.492;13.388;2023-12-28T02:44:38;2.83;;;2.63;;
2107;SDS011;1060;52.492;13.388;2023-12-28T02:47:06;4.27;;;2.17;;
2107;SDS011;1060;52.492;13.388;2023-12-28T02:49:33;3.23;;;2.93;;
2107;SDS011;1060;52.492;13.388;2023-12-28T02:51:59;2.77;;;2.23;;
2107;SDS011;1060;52.492;13.388;2023-12-28T02:54:25;3.10;;;2.63;;
2107;SDS011;1060;52.492;13.388;2023-12-28T02:56:52;2.87;;;1.93;;
2107;SDS011;1060;52.492;13.388;2023-12-28T02:59:19;3.53;;;2.33;;
2107;SDS011;1060;52.492;13.388;2023-12-28T03:01:45;3.00;;;2.10;;
2107;SDS011;1060;52.492;13.388;2023-12-28T03:04:11;2.40;;;1.93;;
2107;SDS011;1060;52.492;13.388;2023-12-28T03:06:38;2.27;;;2.07;;
2107;SDS011;1060;52.492;13.388;2023-12-28T03:09:06;1.87;;;1.60;;
2107;SDS011;1060;52.492;13.388;2023-12-28T03:11:35;4.17;;;2.10;;
2107;SDS011;1060;52.492;13.388;2023-12-28T03:14:02;3.53;;;2.90;;
2107;SDS011;1060;52.492;13.388;2023-12-28T03:16:33;3.40;;;2.00;;
2107;SDS011;1060;52.492;13.388;2023-12-28T03:19:02;2.73;;;1.63;;
2107;SDS011;1060;52.492;13.388;2023-12-28T03:21:31;3.23;;;2.57;;
2107;SDS011;1060;52.492;13.388;2023-12-28T03:23:59;2.37;;;2.17;;
2107;SDS011;1060;52.492;13.388;2023-12-28T03:26:32;2.07;;;1.87;;
2107;SDS011;1060;52.492;13.388;2023-12-28T03:31:56;4.20;;;2.50;;
2107;SDS011;1060;52.492;13.388;2023-12-28T03:34:31;4.57;;;2.27;;
2107;SDS011;1060;52.492;13.388;2023-12-28T03:39:40;1.70;;;1.60;;
2107;SDS011;1060;52.492;13.388;2023-12-28T03:42:13;3.40;;;2.17;;
2107;SDS011;1060;52.492;13.388;2023-12-28T03:44:41;4.13;;;3.10;;
2107;SDS011;1060;52.492;13.388;2023-12-28T03:47:11;9.33;;;3.93;;
2107;SDS011;1060;52.492;13.388;2023-12-28T03:49:43;1.93;;;1.57;;
2107;SDS011;1060;52.492;13.388;2023-12-28T03:52:14;2.30;;;2.10;;
2107;SDS011;1060;52.492;13.388;2023-12-28T03:55:00;2.20;;;2.00;;
2107;SDS011;1060;52.492;13.388;2023-12-28T04:05:48;2.43;;;1.80;;
2107;SDS011;1060;52.492;13.388;2023-12-28T04:08:15;5.93;;;2.07;;
2107;SDS011;1060;52.492;13.388;2023-12-28T04:10:41;3.60;;;2.00;;
2107;SDS011;1060;52.492;13.388;2023-12-28T04:13:07;2.57;;;2.27;;
2107;SDS011;1060;52.492;13.388;2023-12-28T04:15:34;2.60;;;2.23;;
2107;SDS011;1060;52.492;13.388;2023-12-28T04:18:01;3.60;;;2.20;;
2107;SDS011;1060;52.492;13.388;2023-12-28T04:20:27;2.07;;;1.83;;
2107;SDS011;1060;52.492;13.388;2023-12-28T04:22:54;2.47;;;2.27;;
2107;SDS011;1060;52.492;13.388;2023-12-28T04:25:23;2.60;;;1.90;;
2107;SDS011;1060;52.492;13.388;2023-12-28T04:27:52;2.33;;;1.70;;
2107;SDS011;1060;52.492;13.388;2023-12-28T04:30:22;3.30;;;1.73;;
2107;SDS011;1060;52.492;13.388;2023-12-28T04:32:48;4.47;;;2.10;;
2107;SDS011;1060;52.492;13.388;2023-12-28T04:35:17;3.77;;;2.10;;
2107;SDS011;1060;52.492;13.388;2023-12-28T04:37:46;2.40;;;1.93;;
2107;SDS011;1060;52.492;13.388;2023-12-28T04:40:15;2.33;;;2.13;;
2107;SDS011;1060;52.492;13.388;2023-12-28T04:42:43;2.70;;;2.20;;
2107;SDS011;1060;52.492;13.388;2023-12-28T04:45:14;2.80;;;1.83;;
2107;SDS011;1060;52.492;13.388;2023-12-28T04:47:43;4.27;;;1.70;;
2107;SDS011;1060;52.492;13.388;2023-12-28T04:50:09;1.77;;;1.30;;
2107;SDS011;1060;52.492;13.388;2023-12-28T04:52:36;2.30;;;1.87;;
2107;SDS011;1060;52.492;13.388;2023-12-28T04:55:02;1.80;;;1.70;;
2107;SDS011;1060;52.492;13.388;2023-12-28T04:57:31;2.43;;;1.90;;
2107;SDS011;1060;52.492;13.388;2023-12-28T04:59:58;2.63;;;2.20;;
2107;SDS011;1060;52.492;13.388;2023-12-28T07:18:04;6.17;;;5.43;;
2107;SDS011;1060;52.492;13.388;2023-12-28T07:20:33;4.70;;;3.80;;
2107;SDS011;1060;52.492;13.388;2023-12-28T07:22:59;5.70;;;2.83;;
2107;SDS011;1060;52.492;13.388;2023-12-28T07:25:30;3.00;;;2.80;;
2107;SDS011;1060;52.492;13.388;2023-12-28T07:27:56;3.57;;;2.17;;
2107;SDS011;1060;52.492;13.388;2023-12-28T07:30:23;2.63;;;2.30;;
2107;SDS011;1060;52.492;13.388;2023-12-28T07:32:51;2.00;;;1.90;;
2107;SDS011;1060;52.492;13.388;2023-12-28T07:35:18;1.90;;;1.80;;
2107;SDS011;1060;52.492;13.388;2023-12-28T07:37:44;2.37;;;1.83;;
2107;SDS011;1060;52.492;13.388;2023-12-28T07:40:14;1.80;;;1.70;;
2107;SDS011;1060;52.492;13.388;2023-12-28T07:42:40;2.70;;;1.93;;
2107;SDS011;1060;52.492;13.388;2023-12-28T07:45:07;2.10;;;2.00;;
2107;SDS011;1060;52.492;13.388;2023-12-28T07:47:33;3.07;;;1.90;;
2107;SDS011;1060;52.492;13.388;2023-12-28T07:50:02;3.30;;;1.97;;
2107;SDS011;1060;52.492;13.388;2023-12-28T07:52:38;2.50;;;2.27;;
2107;SDS011;1060;52.492;13.388;2023-12-28T07:55:04;4.57;;;2.23;;
2107;SDS011;1060;52.492;13.388;2023-12-28T07:57:34;2.87;;;2.67;;
2107;SDS011;1060;52.492;13.388;2023-12-28T08:00:05;2.00;;;1.80;;
2107;SDS011;1060;52.492;13.388;2023-12-28T08:02:32;3.10;;;2.80;;
2107;SDS011;1060;52.492;13.388;2023-12-28T08:04:58;4.50;;;1.97;;
2107;SDS011;1060;52.492;13.388;2023-12-28T08:07:24;3.83;;;2.60;;
2107;SDS011;1060;52.492;13.388;2023-12-28T08:09:51;2.40;;;2.20;;
2107;SDS011;1060;52.492;13.388;2023-12-28T08:12:21;4.33;;;3.07;;
2107;SDS011;1060;52.492;13.388;2023-12-28T08:14:49;2.73;;;2.53;;
2107;SDS011;1060;52.492;13.388;2023-12-28T08:17:23;3.30;;;3.00;;
2107;SDS011;1060;52.492;13.388;2023-12-28T08:20:03;2.50;;;1.97;;
2107;SDS011;1060;52.492;13.388;2023-12-28T08:28:23;3.93;;;2.60;;
2107;SDS011;1060;52.492;13.388;2023-12-28T08:42:30;3.90;;;2.73;;
2107;SDS011;1060;52.492;13.388;2023-12-28T08:45:14;5.07;;;3.30;;
2107;SDS011;1060;52.492;13.388;2023-12-28T08:47:40;3.30;;;3.00;;
2107;SDS011;1060;52.492;13.388;2023-12-28T08:58:39;3.23;;;2.73;;
2107;SDS011;1060;52.492;13.388;2023-12-28T09:45:49;3.80;;;3.03;;
2107;SDS011;1060;52.492;13.388;2023-12-28T09:48:46;3.87;;;3.57;;
2107;SDS011;1060;52.492;13.388;2023-12-28T11:22:21;4.47;;;3.73;;
2107;SDS011;1060;52.492;13.388;2023-12-28T11:24:57;4.83;;;3.00;;
2107;SDS011;1060;52.492;13.388;2023-12-28T11:27:33;4.17;;;3.13;;
2107;SDS011;1060;52.492;13.388;2023-12-28T11:30:00;4.80;;;4.40;;
2107;SDS011;1060;52.492;13.388;2023-12-28T11:32:35;5.07;;;3.33;;
2107;SDS011;1060;52.492;13.388;2023-12-28T12:40:19;5.00;;;2.63;;
2107;SDS011;1060;52.492;13.388;2023-12-28T12:46:30;2.90;;;2.70;;
2107;SDS011;1060;52.492;13.388;2023-12-28T12:49:09;2.77;;;2.40;;
2107;SDS011;1060;52.492;13.388;2023-12-28T13:35:04;3.50;;;3.20;;
2107;SDS011;1060;52.492;13.388;2023-12-28T13:59:25;11.53;;;7.83;;
2107;SDS011;1060;52.492;13.388;2023-12-28T14:02:38;5.47;;;3.23;;
2107;SDS011;1060;52.492;13.388;2023-12-28T14:08:51;2.73;;;2.40;;
2107;SDS011;1060;52.492;13.388;2023-12-28T14:11:36;5.70;;;3.00;;
2107;SDS011;1060;52.492;13.388;2023-12-28T14:14:14;4.53;;;2.90;;
2107;SDS011;1060;52.492;13.388;2023-12-28T14:16:54;3.70;;;3.40;;
2107;SDS011;1060;52.492;13.388;2023-12-28T14:19:53;4.13;;;3.07;;
2107;SDS011;1060;52.492;13.388;2023-12-28T14:22:24;8.27;;;3.40;;
2107;SDS011;1060;52.492;13.388;2023-12-28T14:25:08;2.70;;;2.23;;
2107;SDS011;1060;52.492;13.388;2023-12-28T14:28:03;4.67;;;2.10;;
2107;SDS011;1060;52.492;13.388;2023-12-28T14:31:26;5.30;;;2.93;;
2107;SDS011;1060;52.492;13.388;2023-12-28T14:34:12;5.00;;;3.07;;
2107;SDS011;1060;52.492;13.388;2023-12-28T14:37:34;4.23;;;3.83;;
2107;SDS011;1060;52.492;13.388;2023-12-28T14:39:54;7.50;;;3.70;;
2107;SDS011;1060;52.492;13.388;2023-12-28T14:42:26;4.40;;;3.40;;
2107;SDS011;1060;52.492;13.388;2023-12-28T14:44:58;8.83;;;3.47;;
2107;SDS011;1060;52.492;13.388;2023-12-28T14:47:44;3.60;;;2.03;;
2107;SDS011;1060;52.492;13.388;2023-12-28T14:50:28;3.07;;;2.10;;
2107;SDS011;1060;52.492;13.388;2023-12-28T14:53:23;7.90;;;3.33;;
2107;SDS011;1060;52.492;13.388;2023-12-28T14:55:51;4.77;;;2.83;;
2107;SDS011;1060;52.492;13.388;2023-12-28T14:58:38;5.37;;;3.33;;
2107;SDS011;1060;52.492;13.388;2023-12-28T15:01:20;4.30;;;2.70;;
2107;SDS011;1060;52.492;13.388;2023-12-28T15:03:56;9.93;;;3.20;;
2107;SDS011;1060;52.492;13.388;2023-12-28T15:06:34;4.50;;;2.50;;
2107;SDS011;1060;52.492;13.388;2023-12-28T15:12:58;6.50;;;4.03;;
2107;SDS011;1060;52.492;13.388;2023-12-28T15:15:43;9.33;;;4.50;;
2107;SDS011;1060;52.492;13.388;2023-12-28T15:18:14;5.97;;;4.10;;
2107;SDS011;1060;52.492;13.388;2023-12-28T15:20:57;8.60;;;3.60;;
2107;SDS011;1060;52.492;13.388;2023-12-28T15:23:27;7.80;;;5.63;;
2107;SDS011;1060;52.492;13.388;2023-12-28T15:28:55;6.53;;;5.10;;
2107;SDS011;1060;52.492;13.388;2023-12-28T15:34:21;4.63;;;3.83;;
2107;SDS011;1060;52.492;13.388;2023-12-28T15:37:50;4.60;;;4.13;;
2107;SDS011;1060;52.492;13.388;2023-12-28T15:39:57;4.23;;;3.20;;
2107;SDS011;1060;52.492;13.388;2023-12-28T15:42:32;3.53;;;3.00;;
2107;SDS011;1060;52.492;13.388;2023-12-28T15:45:14;4.60;;;3.20;;
2107;SDS011;1060;52.492;13.388;2023-12-28T15:48:05;8.10;;;3.50;;
2107;SDS011;1060;52.492;13.388;2023-12-28T15:50:40;4.20;;;3.17;;
2107;SDS011;1060;52.492;13.388;2023-12-28T15:53:09;9.27;;;4.20;;
2107;SDS011;1060;52.492;13.388;2023-12-28T15:55:46;8.47;;;4.50;;
2107;SDS011;1060;52.492;13.388;2023-12-28T15:58:28;4.03;;;3.03;;
2107;SDS011;1060;52.492;13.388;2023-12-28T16:00:57;4.10;;;2.70;;
2107;SDS011;1060;52.492;13.388;2023-12-28T16:03:57;3.93;;;3.10;;
2107;SDS011;1060;52.492;13.388;2023-12-28T16:06:30;4.10;;;3.20;;
2107;SDS011;1060;52.492;13.388;2023-12-28T16:09:29;3.47;;;2.90;;
2107;SDS011;1060;52.492;13.388;2023-12-28T16:12:01;3.20;;;2.93;;
2107;SDS011;1060;52.492;13.388;2023-12-28T16:14:44;6.20;;;3.30;;
2107;SDS011;1060;52.492;13.388;2023-12-28T16:17:17;3.43;;;2.87;;
2107;SDS011;1060;52.492;13.388;2023-12-28T16:20:03;6.50;;;3.37;;
2107;SDS011;1060;52.492;13.388;2023-12-28T16:22:31;6.10;;;3.73;;
2107;SDS011;1060;52.492;13.388;2023-12-28T16:28:21;4.00;;;3.60;;
2107;SDS011;1060;52.492;13.388;2023-12-28T16:31:16;9.40;;;3.47;;
2107;SDS011;1060;52.492;13.388;2023-12-28T16:36:54;4.40;;;3.50;;
2107;SDS011;1060;52.492;13.388;2023-12-28T16:39:38;3.30;;;2.97;;
2107;SDS011;1060;52.492;13.388;2023-12-28T16:42:10;5.10;;;3.30;;
2107;SDS011;1060;52.492;13.388;2023-12-28T16:44:51;4.47;;;3.93;;
2107;SDS011;1060;52.492;13.388;2023-12-28T16:47:52;6.33;;;3.50;;
2107;SDS011;1060;52.492;13.388;2023-12-28T16:50:51;5.03;;;2.80;;
2107;SDS011;1060;52.492;13.388;2023-12-28T16:53:22;2.60;;;2.37;;
2107;SDS011;1060;52.492;13.388;2023-12-28T16:55:51;2.80;;;2.60;;
2107;SDS011;1060;52.492;13.388;2023-12-28T16:58:34;3.40;;;3.03;;
2107;SDS011;1060;52.492;13.388;2023-12-28T17:01:09;8.43;;;3.30;;
2107;SDS011;1060;52.492;13.388;2023-12-28T17:03:59;4.83;;;3.30;;
2107;SDS011;1060;52.492;13.388;2023-12-28T17:06:41;3.03;;;2.73;;
2107;SDS011;1060;52.492;13.388;2023-12-28T17:09:23;3.30;;;2.90;;
2107;SDS011;1060;52.492;13.388;2023-12-28T17:12:12;3.07;;;2.77;;
2107;SDS011;1060;52.492;13.388;2023-12-28T17:14:52;3.83;;;2.73;;
2107;SDS011;1060;52.492;13.388;2023-12-28T17:22:50;4.97;;;4.47;;
2107;SDS011;1060;52.492;13.388;2023-12-28T17:25:39;6.43;;;4.60;;
2107;SDS011;1060;52.492;13.388;2023-12-28T17:28:12;7.60;;;6.07;;
2107;SDS011;1060;52.492;13.388;2023-12-28T17:30:57;8.00;;;7.30;;
2107;SDS011;1060;52.492;13.388;2023-12-28T17:33:43;7.93;;;5.57;;
2107;SDS011;1060;52.492;13.388;2023-12-28T17:36:47;6.13;;;4.50;;
2107;SDS011;1060;52.492;13.388;2023-12-28T17:39:15;6.53;;;4.13;;
2107;SDS011;1060;52.492;13.388;2023-12-28T17:42:24;5.40;;;3.70;;
2107;SDS011;1060;52.492;13.388;2023-12-28T17:44:57;4.70;;;4.30;;
2107;SDS011;1060;52.492;13.388;2023-12-28T17:47:29;5.53;;;4.13;;
2107;SDS011;1060;52.492;13.388;2023-12-28T17:53:05;9.03;;;5.40;;
2107;SDS011;1060;52.492;13.388;2023-12-28T17:55:34;6.73;;;4.87;;
2107;SDS011;1060;52.492;13.388;2023-12-28T17:58:13;4.30;;;4.00;;
2107;SDS011;1060;52.492;13.388;2023-12-28T18:00:39;4.67;;;4.27;;
2107;SDS011;1060;52.492;13.388;2023-12-28T18:03:23;3.70;;;3.27;;
2107;SDS011;1060;52.492;13.388;2023-12-28T18:05:52;3.60;;;3.17;;
2107;SDS011;1060;52.492;13.388;2023-12-28T18:08:30;6.03;;;4.80;;
2107;SDS011;1060;52.492;13.388;2023-12-28T18:11:06;3.50;;;3.20;;
2107;SDS011;1060;52.492;13.388;2023-12-28T18:13:35;7.17;;;4.40;;
2107;SDS011;1060;52.492;13.388;2023-12-28T18:16:17;4.00;;;3.60;;
2107;SDS011;1060;52.492;13.388;2023-12-28T18:22:11;4.13;;;3.30;;
2107;SDS011;1060;52.492;13.388;2023-12-28T18:24:50;3.90;;;3.47;;
2107;SDS011;1060;52.492;13.388;2023-12-28T18:27:19;3.33;;;3.07;;
2107;SDS011;1060;52.492;13.388;2023-12-28T18:37:27;2.93;;;2.73;;
2107;SDS011;1060;52.492;13.388;2023-12-28T18:40:56;3.27;;;2.00;;
2107;SDS011;1060;52.492;13.388;2023-12-28T18:44:00;5.13;;;2.50;;
2107;SDS011;1060;52.492;13.388;2023-12-28T18:49:18;4.77;;;4.30;;
2107;SDS011;1060;52.492;13.388;2023-12-28T18:54:24;3.47;;;2.87;;
2107;SDS011;1060;52.492;13.388;2023-12-28T18:59:47;4.03;;;2.63;;
2107;SDS011;1060;52.492;13.388;2023-12-28T19:02:26;4.20;;;3.00;;
2107;SDS011;1060;52.492;13.388;2023-12-28T19:04:55;6.43;;;3.13;;
2107;SDS011;1060;52.492;13.388;2023-12-28T19:07:44;3.50;;;3.20;;
2107;SDS011;1060;52.492;13.388;2023-12-28T19:10:14;4.77;;;3.53;;
2107;SDS011;1060;52.492;13.388;2023-12-28T19:12:41;3.97;;;3.07;;
2107;SDS011;1060;52.492;13.388;2023-12-28T19:15:07;6.50;;;4.57;;
2107;SDS011;1060;52.492;13.388;2023-12-28T19:17:36;4.53;;;4.13;;
2107;SDS011;1060;52.492;13.388;2023-12-28T19:20:07;3.53;;;3.20;;
2107;SDS011;1060;52.492;13.388;2023-12-28T19:22:36;4.93;;;2.90;;
2107;SDS011;1060;52.492;13.388;2023-12-28T19:25:05;3.70;;;3.23;;
2107;SDS011;1060;52.492;13.388;2023-12-28T19:27:32;3.33;;;3.03;;
2107;SDS011;1060;52.492;13.388;2023-12-28T19:29:59;4.47;;;3.13;;
2107;SDS011;1060;52.492;13.388;2023-12-28T19:32:29;3.27;;;3.00;;
2107;SDS011;1060;52.492;13.388;2023-12-28T19:34:55;3.87;;;3.40;;
2107;SDS011;1060;52.492;13.388;2023-12-28T19:37:21;4.90;;;4.03;;
2107;SDS011;1060;52.492;13.388;2023-12-28T19:39:48;2.73;;;2.37;;
2107;SDS011;1060;52.492;13.388;2023-12-28T19:42:14;4.63;;;4.00;;
2107;SDS011;1060;52.492;13.388;2023-12-28T19:44:44;5.10;;;3.93;;
2107;SDS011;1060;52.492;13.388;2023-12-28T19:47:10;3.63;;;2.73;;
2107;SDS011;1060;52.492;13.388;2023-12-28T19:49:44;4.43;;;3.83;;
2107;SDS011;1060;52.492;13.388;2023-12-28T19:52:13;5.53;;;2.80;;
2107;SDS011;1060;52.492;13.388;2023-12-28T19:54:43;7.00;;;3.77;;
2107;SDS011;1060;52.492;13.388;2023-12-28T19:57:09;5.77;;;3.60;;
2107;SDS011;1060;52.492;13.388;2023-12-28T19:59:38;8.87;;;5.93;;
2107;SDS011;1060;52.492;13.388;2023-12-28T20:02:04;5.10;;;3.20;;
2107;SDS011;1060;52.492;13.388;2023-12-28T20:04:31;3.17;;;2.87;;
2107;SDS011;1060;52.492;13.388;2023-12-28T20:06:57;4.73;;;3.57;;
2107;SDS011;1060;52.492;13.388;2023-12-28T20:09:24;3.83;;;3.20;;
2107;SDS011;1060;52.492;13.388;2023-12-28T20:11:53;5.40;;;4.07;;
2107;SDS011;1060;52.492;13.388;2023-12-28T20:14:19;3.40;;;3.10;;
2107;SDS011;1060;52.492;13.388;2023-12-28T20:16:45;6.23;;;3.77;;
2107;SDS011;1060;52.492;13.388;2023-12-28T20:19:16;5.53;;;4.03;;
2107;SDS011;1060;52.492;13.388;2023-12-28T20:21:43;10.43;;;4.70;;
2107;SDS011;1060;52.492;13.388;2023-12-28T20:24:10;7.40;;;3.87;;
2107;SDS011;1060;52.492;13.388;2023-12-28T20:26:36;5.87;;;3.90;;
2107;SDS011;1060;52.492;13.388;2023-12-28T20:29:02;7.17;;;4.37;;
2107;SDS011;1060;52.492;13.388;2023-12-28T20:31:29;4.40;;;3.40;;
2107;SDS011;1060;52.492;13.388;2023-12-28T20:33:59;6.73;;;4.43;;
2107;SDS011;1060;52.492;13.388;2023-12-28T20:36:26;4.40;;;3.50;;
2107;SDS011;1060;52.492;13.388;2023-12-28T20:38:53;6.13;;;4.07;;
2107;SDS011;1060;52.492;13.388;2023-12-28T20:41:19;3.57;;;3.27;;
2107;SDS011;1060;52.492;13.388;2023-12-28T20:43:49;4.07;;;3.27;;
2107;SDS011;1060;52.492;13.388;2023-12-28T20:46:18;4.10;;;3.73;;
2107;SDS011;1060;52.492;13.388;2023-12-28T20:48:45;3.83;;;3.53;;
2107;SDS011;1060;52.492;13.388;2023-12-28T20:51:24;5.27;;;3.37;;
2107;SDS011;1060;52.492;13.388;2023-12-28T20:53:51;4.17;;;3.77;;
2107;SDS011;1060;52.492;13.388;2023-12-28T20:56:18;3.83;;;2.93;;
2107;SDS011;1060;52.492;13.388;2023-12-28T20:58:45;4.87;;;3.40;;
2107;SDS011;1060;52.492;13.388;2023-12-28T21:01:12;5.83;;;4.53;;
2107;SDS011;1060;52.492;13.388;2023-12-28T21:03:39;4.07;;;3.47;;
2107;SDS011;1060;52.492;13.388;2023-12-28T21:06:05;9.43;;;6.27;;
2107;SDS011;1060;52.492;13.388;2023-12-28T21:08:34;6.40;;;5.80;;
2107;SDS011;1060;52.492;13.388;2023-12-28T21:11:02;6.10;;;5.50;;
2107;SDS011;1060;52.492;13.388;2023-12-28T21:14:02;11.40;;;8.50;;
2107;SDS011;1060;52.492;13.388;2023-12-28T21:16:29;6.80;;;6.10;;
2107;SDS011;1060;52.492;13.388;2023-12-28T21:18:55;4.80;;;4.30;;
2107;SDS011;1060;52.492;13.388;2023-12-28T21:21:22;4.03;;;3.60;;
2107;SDS011;1060;52.492;13.388;2023-12-28T21:23:48;6.03;;;4.27;;
2107;SDS011;1060;52.492;13.388;2023-12-28T21:26:23;4.07;;;3.20;;
2107;SDS011;1060;52.492;13.388;2023-12-28T21:28:50;4.70;;;4.00;;
2107;SDS011;1060;52.492;13.388;2023-12-28T21:31:16;4.07;;;3.70;;
2107;SDS011;1060;52.492;13.388;2023-12-28T21:33:48;4.43;;;3.83;;
2107;SDS011;1060;52.492;13.388;2023-12-28T21:36:17;5.57;;;5.07;;
2107;SDS011;1060;52.492;13.388;2023-12-28T21:39:26;9.80;;;3.87;;
2107;SDS011;1060;52.492;13.388;2023-12-28T21:42:01;4.77;;;3.60;;
2107;SDS011;1060;52.492;13.388;2023-12-28T21:44:32;5.13;;;3.10;;
2107;SDS011;1060;52.492;13.388;2023-12-28T21:47:01;4.20;;;3.80;;
2107;SDS011;1060;52.492;13.388;2023-12-28T21:49:35;5.40;;;4.60;;
2107;SDS011;1060;52.492;13.388;2023-12-28T21:52:03;5.93;;;4.50;;
2107;SDS011;1060;52.492;13.388;2023-12-28T21:54:39;4.80;;;4.40;;
2107;SDS011;1060;52.492;13.388;2023-12-28T21:57:17;6.90;;;5.30;;
2107;SDS011;1060;52.492;13.388;2023-12-28T21:59:50;5.37;;;3.90;;
2107;SDS011;1060;52.492;13.388;2023-12-28T22:02:20;4.90;;;4.50;;
2107;SDS011;1060;52.492;13.388;2023-12-28T22:04:55;4.57;;;3.43;;
2107;SDS011;1060;52.492;13.388;2023-12-28T22:07:35;4.37;;;3.07;;
2107;SDS011;1060;52.492;13.388;2023-12-28T22:10:09;4.13;;;3.43;;
2107;SDS011;1060;52.492;13.388;2023-12-28T22:13:18;4.10;;;3.00;;
2107;SDS011;1060;52.492;13.388;2023-12-28T22:15:56;3.40;;;3.10;;
2107;SDS011;1060;52.492;13.388;2023-12-28T22:18:23;5.30;;;3.67;;
2107;SDS011;1060;52.492;13.388;2023-12-28T22:20:50;4.23;;;3.03;;
2107;SDS011;1060;52.492;13.388;2023-12-28T22:23:19;6.17;;;4.57;;
2107;SDS011;1060;52.492;13.388;2023-12-28T22:25:54;3.47;;;3.07;;
2107;SDS011;1060;52.492;13.388;2023-12-28T22:28:23;4.40;;;3.53;;
2107;SDS011;1060;52.492;13.388;2023-12-28T22:30:52;3.07;;;2.80;;
2107;SDS011;1060;52.492;13.388;2023-12-28T22:33:19;3.07;;;2.87;;
2107;SDS011;1060;52.492;13.388;2023-12-28T22:35:46;3.37;;;3.03;;
2107;SDS011;1060;52.492;13.388;2023-12-28T22:38:14;3.10;;;2.90;;
2107;SDS011;1060;52.492;13.388;2023-12-28T22:40:42;3.53;;;3.23;;
2107;SDS011;1060;52.492;13.388;2023-12-28T22:43:09;3.50;;;2.90;;
2107;SDS011;1060;52.492;13.388;2023-12-28T22:45:36;9.00;;;7.30;;
2107;SDS011;1060;52.492;13.388;2023-12-28T22:48:02;6.20;;;4.10;;
2107;SDS011;1060;52.492;13.388;2023-12-28T22:50:32;4.43;;;3.00;;
2107;SDS011;1060;52.492;13.388;2023-12-28T22:53:01;4.03;;;2.70;;
2107;SDS011;1060;52.492;13.388;2023-12-28T22:55:28;5.20;;;3.40;;
2107;SDS011;1060;52.492;13.388;2023-12-28T22:57:54;4.50;;;3.47;;
2107;SDS011;1060;52.492;13.388;2023-12-28T23:00:22;3.60;;;3.30;;
2107;SDS011;1060;52.492;13.388;2023-12-28T23:02:51;3.63;;;3.07;;
2107;SDS011;1060;52.492;13.388;2023-12-28T23:05:17;5.23;;;2.77;;
2107;SDS011;1060;52.492;13.388;2023-12-28T23:07:44;5.80;;;3.87;;
2107;SDS011;1060;52.492;13.388;2023-12-28T23:10:10;4.10;;;2.93;;
2107;SDS011;1060;52.492;13.388;2023-12-28T23:12:39;3.60;;;2.50;;
2107;SDS011;1060;52.492;13.388;2023-12-28T23:15:08;4.40;;;3.13;;
2107;SDS011;1060;52.492;13.388;2023-12-28T23:17:36;7.50;;;2.50;;
2107;SDS011;1060;52.492;13.388;2023-12-28T23:20:03;7.90;;;2.53;;
2107;SDS011;1060;52.492;13.388;2023-12-28T23:22:35;5.50;;;2.77;;
2107;SDS011;1060;52.492;13.388;2023-12-28T23:25:11;3.93;;;2.80;;
2107;SDS011;1060;52.492;13.388;2023-12-28T23:27:40;2.33;;;2.10;;
2107;SDS011;1060;52.492;13.388;2023-12-28T23:30:10;4.43;;;4.03;;
2107;SDS011;1060;52.492;13.388;2023-12-28T23:32:36;4.00;;;3.60;;
2107;SDS011;1060;52.492;13.388;2023-12-28T23:35:06;5.90;;;2.90;;
2107;SDS011;1060;52.492;13.388;2023-12-28T23:37:33;3.00;;;2.67;;
2107;SDS011;1060;52.492;13.388;2023-12-28T23:39:59;8.70;;;4.60;;
2107;SDS011;1060;52.492;13.388;2023-12-28T23:42:26;4.03;;;2.87;;
2107;SDS011;1060;52.492;13.388;2023-12-28T23:44:52;3.07;;;2.70;;
2107;SDS011;1060;52.492;13.388;2023-12-28T23:47:19;4.90;;;2.30;;
2107;SDS011;1060;52.492;13.388;2023-12-28T23:49:45;3.57;;;2.33;;